createdAt,value
2023-04-04T00:00:24.839Z,1.20
2023-04-04T00:02:51.784Z,1.30
2023-04-04T00:05:18.492Z,1.58
2023-04-04T00:07:48.432Z,1.25
2023-04-04T00:10:15.829Z,1.48
2023-04-04T00:15:10.526Z,4.60
2023-04-04T00:17:37.070Z,5.00
2023-04-04T00:20:04.595Z,4.13
2023-04-04T00:22:31.583Z,6.00
2023-04-04T00:24:59.212Z,4.43
2023-04-04T00:27:26.291Z,4.95
2023-04-04T00:29:53.551Z,7.10
2023-04-04T00:32:20.451Z,4.70
2023-04-04T00:34:47.036Z,5.32
2023-04-04T00:37:13.586Z,4.67
2023-04-04T00:39:40.159Z,3.97
2023-04-04T00:42:07.413Z,3.90
2023-04-04T00:44:36.507Z,3.50
2023-04-04T00:47:04.440Z,3.00
2023-04-04T00:49:31.062Z,3.03
2023-04-04T00:51:57.990Z,2.70
2023-04-04T00:54:24.755Z,3.35
2023-04-04T00:56:55.471Z,3.30
2023-04-04T00:59:27.923Z,3.63
2023-04-04T01:01:54.936Z,3.30
2023-04-04T01:04:21.979Z,3.15
2023-04-04T01:06:49.888Z,3.15
2023-04-04T01:09:16.816Z,2.67
2023-04-04T01:11:44.655Z,2.63
2023-04-04T01:14:11.425Z,2.50
2023-04-04T01:16:38.647Z,1.80
2023-04-04T01:21:36.328Z,1.63
2023-04-04T01:24:04.449Z,1.70
2023-04-04T01:26:31.916Z,1.20
2023-04-04T01:31:36.135Z,1.17
2023-04-04T01:34:17.817Z,1.20
2023-04-04T01:37:03.054Z,1.13
2023-04-04T01:39:43.102Z,1.63
2023-04-04T01:42:10.150Z,1.48
2023-04-04T01:44:37.031Z,1.17
2023-04-04T01:47:08.658Z,2.20
2023-04-04T01:49:35.563Z,1.85
2023-04-04T01:52:03.380Z,2.65
2023-04-04T01:54:30.896Z,2.10
2023-04-04T01:56:58.010Z,2.97
2023-04-04T01:59:24.654Z,1.55
2023-04-04T02:01:51.324Z,1.60
2023-04-04T02:04:18.044Z,2.05
2023-04-04T02:06:44.566Z,1.80
2023-04-04T02:09:11.175Z,2.37
2023-04-04T02:11:37.807Z,1.88
2023-04-04T02:14:05.210Z,1.60
2023-04-04T02:18:58.245Z,3.85
2023-04-04T02:21:27.173Z,5.03
2023-04-04T02:23:54.031Z,2.10
2023-04-04T02:26:21.420Z,1.42
2023-04-04T02:31:14.482Z,2.42
2023-04-04T02:33:41.267Z,2.40
2023-04-04T02:36:08.626Z,3.42
2023-04-04T02:41:02.047Z,4.72
2023-04-04T02:43:28.602Z,2.93
2023-04-04T02:45:55.517Z,2.92
2023-04-04T02:48:22.205Z,3.35
2023-04-04T02:50:49.063Z,4.18
2023-04-04T02:53:16.019Z,4.40
2023-04-04T02:55:42.685Z,4.90
2023-04-04T02:58:09.328Z,3.83
2023-04-04T03:00:36.081Z,1.95
2023-04-04T03:03:02.801Z,3.95
2023-04-04T03:05:30.562Z,2.78
2023-04-04T03:07:58.099Z,3.15
2023-04-04T03:10:26.002Z,4.47
2023-04-04T03:12:52.724Z,1.70
2023-04-04T03:15:19.788Z,2.25
2023-04-04T03:17:46.910Z,4.00
2023-04-04T03:20:15.195Z,2.75
2023-04-04T03:22:42.441Z,1.67
2023-04-04T03:25:09.587Z,1.10
2023-04-04T03:27:36.366Z,1.55
2023-04-04T03:30:03.968Z,1.20
2023-04-04T03:32:30.604Z,1.50
2023-04-04T03:34:57.219Z,1.10
2023-04-04T03:37:24.609Z,1.63
2023-04-04T03:42:18.050Z,1.73
2023-04-04T03:44:44.582Z,6.20
2023-04-04T03:47:11.348Z,2.00
2023-04-04T03:49:37.897Z,1.08
2023-04-04T03:52:04.674Z,1.90
2023-04-04T03:54:31.455Z,1.55
2023-04-04T03:56:58.302Z,2.22
2023-04-04T03:59:25.230Z,2.80
2023-04-04T04:01:52.560Z,5.18
2023-04-04T04:06:45.593Z,6.93
2023-04-04T04:09:14.904Z,9.50
2023-04-04T04:11:41.455Z,8.82
2023-04-04T04:14:08.601Z,10.47
2023-04-04T04:16:35.250Z,10.80
2023-04-04T04:19:02.444Z,11.98
2023-04-04T04:21:28.986Z,13.27
2023-04-04T04:23:55.551Z,10.00
2023-04-04T04:26:22.121Z,6.35
2023-04-04T04:28:48.740Z,8.97
2023-04-04T04:31:15.747Z,6.03
2023-04-04T04:33:42.586Z,4.65
2023-04-04T04:36:09.418Z,4.28
2023-04-04T04:38:35.977Z,3.42
2023-04-04T04:41:02.617Z,3.10
2023-04-04T04:43:29.180Z,2.97
2023-04-04T04:45:56.018Z,2.47
2023-04-04T04:48:22.799Z,2.60
2023-04-04T04:50:49.439Z,2.15
2023-04-04T04:53:16.707Z,2.28
2023-04-04T04:55:43.820Z,2.28
2023-04-04T04:58:11.218Z,2.83
2023-04-04T05:00:38.838Z,4.07
2023-04-04T05:03:08.393Z,7.53
2023-04-04T05:05:35.407Z,8.65
2023-04-04T05:08:02.994Z,18.98
2023-04-04T05:10:30.685Z,16.52
2023-04-04T05:12:57.849Z,10.10
2023-04-04T05:15:29.358Z,2.17
2023-04-04T05:17:56.017Z,1.00
2023-04-04T05:20:23.399Z,0.82
2023-04-04T05:22:51.571Z,1.40
2023-04-04T05:25:19.238Z,1.60
2023-04-04T05:27:49.632Z,0.80
2023-04-04T05:30:17.063Z,0.75
2023-04-04T05:32:46.900Z,4.00
2023-04-04T05:35:13.611Z,5.50
2023-04-04T05:37:40.697Z,10.48
2023-04-04T05:40:08.192Z,17.77
2023-04-04T05:42:34.765Z,9.45
2023-04-04T05:45:01.891Z,5.03
2023-04-04T05:47:28.504Z,4.22
2023-04-04T05:49:55.174Z,4.10
2023-04-04T05:52:21.837Z,3.97
2023-04-04T05:54:48.341Z,4.63
2023-04-04T05:57:14.926Z,3.90
2023-04-04T05:59:41.481Z,3.20
2023-04-04T06:02:08.406Z,3.40
2023-04-04T06:04:35.011Z,3.67
2023-04-04T06:07:01.731Z,3.90
2023-04-04T06:09:28.299Z,3.40
2023-04-04T06:11:54.912Z,3.60
2023-04-04T06:14:21.581Z,4.13
2023-04-04T06:16:48.219Z,4.03
2023-04-04T06:19:14.759Z,3.70
2023-04-04T06:21:41.294Z,3.83
2023-04-04T06:24:07.901Z,3.30
2023-04-04T06:26:34.570Z,3.67
2023-04-04T06:29:01.161Z,3.10
2023-04-04T06:31:27.785Z,0.90
2023-04-04T06:33:54.419Z,0.60
2023-04-04T06:36:21.442Z,0.55
2023-04-04T06:38:48.049Z,0.40
2023-04-04T06:41:14.692Z,0.40
2023-04-04T06:43:41.690Z,0.40
2023-04-04T06:46:08.588Z,0.30
2023-04-04T06:48:35.204Z,0.35
2023-04-04T06:51:01.964Z,0.40
2023-04-04T06:53:28.615Z,0.40
2023-04-04T06:55:55.308Z,0.50
2023-04-04T06:58:22.006Z,0.40
2023-04-04T07:00:48.741Z,0.73
2023-04-04T07:03:15.403Z,0.50
2023-04-04T07:05:42.653Z,1.00
2023-04-04T07:08:09.815Z,0.60
2023-04-04T07:10:36.798Z,0.60
2023-04-04T07:13:04.154Z,0.50
2023-04-04T07:15:30.676Z,0.67
2023-04-04T07:17:57.591Z,0.57
2023-04-04T07:20:24.211Z,0.70
2023-04-04T07:22:50.886Z,0.60
2023-04-04T07:25:17.506Z,0.90
2023-04-04T07:27:44.360Z,0.80
2023-04-04T07:30:11.832Z,0.70
2023-04-04T07:35:07.110Z,0.80
2023-04-04T07:37:37.136Z,0.55
2023-04-04T07:40:05.603Z,0.80
2023-04-04T07:42:32.259Z,0.60
2023-04-04T07:44:58.853Z,0.68
2023-04-04T07:47:25.558Z,0.95
2023-04-04T07:49:52.138Z,0.93
2023-04-04T07:52:18.672Z,1.83
2023-04-04T07:54:45.449Z,1.10
2023-04-04T07:57:12.054Z,1.98
2023-04-04T07:59:38.640Z,2.08
2023-04-04T08:02:05.159Z,1.67
2023-04-04T08:04:31.871Z,1.63
2023-04-04T08:06:58.578Z,1.20
2023-04-04T08:09:25.584Z,1.52
2023-04-04T08:11:52.802Z,1.23
2023-04-04T08:14:19.372Z,1.20
2023-04-04T08:16:46.242Z,1.20
2023-04-04T08:19:13.075Z,1.80
2023-04-04T08:21:39.760Z,1.17
2023-04-04T08:24:06.608Z,1.20
2023-04-04T08:26:33.194Z,1.40
2023-04-04T08:28:59.935Z,1.27
2023-04-04T08:31:26.993Z,1.30
2023-04-04T08:33:53.657Z,0.93
2023-04-04T08:36:20.259Z,1.20
2023-04-04T08:38:46.962Z,1.15
2023-04-04T08:41:15.709Z,1.08
2023-04-04T08:43:46.570Z,1.55
2023-04-04T08:46:15.432Z,1.58
2023-04-04T08:48:43.576Z,1.33
2023-04-04T08:51:14.214Z,1.10
2023-04-04T08:53:41.895Z,1.65
2023-04-04T08:56:09.498Z,1.40
2023-04-04T08:58:39.153Z,1.63
2023-04-04T09:01:06.913Z,2.00
2023-04-04T09:03:35.286Z,2.00
2023-04-04T09:06:02.972Z,1.73
2023-04-04T09:08:30.542Z,1.58
2023-04-04T09:10:58.122Z,1.83
2023-04-04T09:13:24.773Z,1.70
2023-04-04T09:15:56.492Z,1.65
2023-04-04T09:18:23.182Z,1.80
2023-04-04T09:20:50.551Z,1.90
2023-04-04T09:23:21.230Z,1.80
2023-04-04T09:26:02.573Z,1.40
2023-04-04T09:28:31.122Z,1.20
2023-04-04T09:33:26.798Z,1.20
2023-04-04T09:36:00.181Z,1.08
2023-04-04T09:38:29.653Z,1.20
2023-04-04T09:40:57.000Z,1.17
2023-04-04T09:43:25.430Z,1.15
2023-04-04T09:45:55.058Z,1.50
2023-04-04T09:48:32.957Z,0.93
2023-04-04T09:50:59.868Z,1.00
2023-04-04T09:53:28.005Z,1.15
2023-04-04T09:55:55.926Z,1.70
2023-04-04T09:58:29.779Z,1.13
2023-04-04T10:00:59.684Z,1.50
2023-04-04T10:03:27.793Z,0.95
2023-04-04T10:06:01.105Z,1.00
2023-04-04T10:08:29.282Z,1.10
2023-04-04T10:11:09.487Z,1.02
2023-04-04T10:13:41.716Z,0.80
2023-04-04T10:16:11.248Z,1.45
2023-04-04T10:18:38.256Z,1.20
2023-04-04T10:23:38.617Z,1.30
2023-04-04T10:26:06.331Z,1.05
2023-04-04T10:28:34.327Z,1.00
2023-04-04T10:31:22.610Z,0.90
2023-04-04T10:34:12.976Z,0.77
2023-04-04T10:36:51.433Z,0.80
2023-04-04T10:39:20.653Z,0.82
2023-04-04T10:41:51.102Z,1.00
2023-04-04T10:44:41.715Z,0.98
2023-04-04T10:47:18.202Z,0.95
2023-04-04T10:49:46.323Z,0.70
2023-04-04T10:52:16.671Z,1.15
2023-04-04T10:54:44.818Z,1.00
2023-04-04T10:57:14.350Z,1.38
2023-04-04T11:00:09.444Z,2.78
2023-04-04T11:02:59.319Z,1.00
2023-04-04T11:05:47.269Z,1.20
2023-04-04T11:08:20.666Z,1.20
2023-04-04T11:10:51.756Z,0.80
2023-04-04T11:13:25.213Z,1.00
2023-04-04T11:16:15.958Z,0.93
2023-04-04T11:18:42.938Z,0.80
2023-04-04T11:21:13.876Z,0.90
2023-04-04T11:23:49.258Z,0.70
2023-04-04T11:26:27.997Z,1.45
2023-04-04T11:28:59.075Z,0.90
2023-04-04T11:31:50.862Z,0.90
2023-04-04T11:34:37.469Z,0.85
2023-04-04T11:37:19.952Z,1.10
2023-04-04T11:39:50.826Z,1.17
2023-04-04T11:42:21.320Z,1.00
2023-04-04T11:45:05.242Z,1.15
2023-04-04T11:47:32.018Z,1.20
2023-04-04T11:50:02.410Z,1.05
2023-04-04T11:52:35.683Z,0.95
2023-04-04T11:55:02.654Z,3.35
2023-04-04T11:57:29.313Z,1.63
2023-04-04T11:59:57.087Z,1.13
2023-04-04T12:02:32.166Z,0.90
2023-04-04T12:04:59.605Z,1.00
2023-04-04T12:09:54.254Z,1.20
2023-04-04T12:12:22.697Z,1.58
2023-04-04T12:14:49.309Z,1.60
2023-04-04T12:17:16.407Z,1.40
2023-04-04T12:19:43.941Z,0.95
2023-04-04T12:22:10.879Z,1.20
2023-04-04T12:24:37.977Z,1.50
2023-04-04T12:27:06.153Z,1.35
2023-04-04T12:29:37.761Z,1.30
2023-04-04T12:32:06.134Z,1.23
2023-04-04T12:34:34.023Z,1.60
2023-04-04T12:37:01.838Z,1.70
2023-04-04T12:39:29.975Z,2.00
2023-04-04T12:42:02.626Z,2.20
2023-04-04T12:44:33.486Z,1.80
2023-04-04T12:47:02.153Z,1.63
2023-04-04T12:49:42.788Z,1.50
2023-04-04T12:52:23.517Z,1.67
2023-04-04T12:55:06.872Z,1.60
2023-04-04T12:57:36.139Z,1.70
2023-04-04T13:00:04.630Z,2.15
2023-04-04T13:02:31.388Z,2.03
2023-04-04T13:05:00.285Z,2.28
2023-04-04T13:07:30.224Z,2.35
2023-04-04T13:09:59.691Z,2.00
2023-04-04T13:12:26.955Z,2.05
2023-04-04T13:15:06.970Z,2.17
2023-04-04T13:17:44.666Z,2.10
2023-04-04T13:20:13.238Z,2.25
2023-04-04T13:22:41.469Z,2.38
2023-04-04T13:25:09.619Z,2.25
2023-04-04T13:27:37.502Z,2.15
2023-04-04T13:30:06.542Z,2.60
2023-04-04T13:32:34.012Z,2.55
2023-04-04T13:35:00.700Z,2.40
2023-04-04T13:37:28.354Z,2.60
2023-04-04T13:39:55.015Z,2.58
2023-04-04T13:42:23.297Z,2.73
2023-04-04T13:44:49.885Z,3.13
2023-04-04T13:47:16.538Z,2.73
2023-04-04T13:49:43.088Z,2.58
2023-04-04T13:52:09.764Z,2.77
2023-04-04T13:54:36.346Z,2.90
2023-04-04T13:57:02.978Z,2.78
2023-04-04T13:59:29.663Z,3.33
2023-04-04T14:01:56.602Z,3.00
2023-04-04T14:04:24.345Z,2.78
2023-04-04T14:06:51.257Z,3.20
2023-04-04T14:09:18.218Z,2.78
2023-04-04T14:11:46.514Z,3.47
2023-04-04T14:14:13.111Z,3.10
2023-04-04T14:16:39.704Z,2.63
2023-04-04T14:19:07.086Z,3.30
2023-04-04T14:24:00.271Z,3.35
2023-04-04T14:26:26.914Z,3.30
2023-04-04T14:28:53.760Z,2.90
2023-04-04T14:31:20.329Z,3.15
2023-04-04T14:33:47.025Z,3.37
2023-04-04T14:36:13.578Z,3.20
2023-04-04T14:38:40.330Z,3.50
2023-04-04T14:41:06.880Z,3.30
2023-04-04T14:43:33.547Z,3.58
2023-04-04T14:46:00.496Z,3.60
2023-04-04T14:48:27.055Z,3.63
2023-04-04T14:50:53.696Z,3.60
2023-04-04T14:53:21.340Z,3.42
2023-04-04T14:55:47.878Z,3.47
2023-04-04T14:58:14.514Z,3.73
2023-04-04T15:00:41.084Z,3.38
2023-04-04T15:03:08.419Z,3.50
2023-04-04T15:08:01.659Z,3.45
2023-04-04T15:10:28.258Z,3.50
2023-04-04T15:12:55.366Z,3.90
2023-04-04T15:15:23.754Z,3.50
2023-04-04T15:17:51.301Z,3.63
2023-04-04T15:22:44.994Z,3.88
2023-04-04T15:25:11.662Z,3.70
2023-04-04T15:27:38.294Z,3.80
2023-04-04T15:30:05.868Z,3.75
2023-04-04T15:32:32.820Z,4.40
2023-04-04T15:34:59.456Z,4.40
2023-04-04T15:37:26.589Z,2.47
2023-04-04T15:39:54.198Z,3.40
2023-04-04T15:42:21.352Z,4.20
2023-04-04T15:44:47.984Z,3.58
2023-04-04T15:47:16.665Z,4.07
2023-04-04T15:49:43.348Z,4.22
2023-04-04T15:52:10.358Z,4.05
2023-04-04T15:54:36.922Z,4.10
2023-04-04T15:57:03.633Z,4.43
2023-04-04T15:59:31.932Z,4.07
2023-04-04T16:01:58.975Z,4.30
2023-04-04T16:04:25.622Z,4.15
2023-04-04T16:06:52.267Z,4.30
2023-04-04T16:09:18.885Z,4.22
2023-04-04T16:11:45.494Z,4.47
2023-04-04T16:14:12.938Z,4.43
2023-04-04T16:19:09.281Z,4.43
2023-04-04T16:21:36.226Z,3.78
2023-04-04T16:24:05.274Z,4.20
2023-04-04T16:26:31.967Z,5.10
2023-04-04T16:28:58.584Z,5.28
2023-04-04T16:31:25.551Z,4.60
2023-04-04T16:33:52.137Z,5.47
2023-04-04T16:36:18.801Z,4.57
2023-04-04T16:38:45.423Z,5.18
2023-04-04T16:41:11.999Z,4.90
2023-04-04T16:43:38.608Z,4.40
2023-04-04T16:46:05.842Z,4.40
2023-04-04T16:48:32.510Z,4.85
2023-04-04T16:50:59.170Z,4.55
2023-04-04T16:53:25.806Z,4.97
2023-04-04T16:55:52.380Z,4.63
2023-04-04T16:58:19.587Z,4.70
2023-04-04T17:00:46.371Z,5.00
2023-04-04T17:03:13.032Z,5.15
2023-04-04T17:05:39.608Z,5.50
2023-04-04T17:08:06.408Z,4.80
2023-04-04T17:10:34.729Z,5.32
2023-04-04T17:13:02.082Z,4.80
2023-04-04T17:17:55.249Z,5.15
2023-04-04T17:20:21.991Z,5.80
2023-04-04T17:22:50.755Z,6.00
2023-04-04T17:25:18.288Z,5.63
2023-04-04T17:27:44.946Z,5.85
2023-04-04T17:30:12.429Z,6.32
2023-04-04T17:32:39.123Z,5.88
2023-04-04T17:35:07.048Z,5.45
2023-04-04T17:37:33.645Z,5.60
2023-04-04T17:40:03.612Z,5.75
2023-04-04T17:42:30.159Z,5.57
2023-04-04T17:44:56.707Z,5.70
2023-04-04T17:47:23.426Z,5.83
2023-04-04T17:49:51.293Z,5.35
2023-04-04T17:52:19.342Z,5.47
2023-04-04T17:54:48.690Z,5.68
2023-04-04T17:57:15.428Z,5.80
2023-04-04T17:59:42.065Z,5.57
2023-04-04T18:02:08.670Z,5.30
2023-04-04T18:04:36.971Z,5.70
2023-04-04T18:07:03.918Z,5.90
2023-04-04T18:09:30.559Z,6.20
2023-04-04T18:11:57.622Z,5.82
2023-04-04T18:14:24.216Z,5.97
2023-04-04T18:16:50.880Z,5.55
2023-04-04T18:19:17.494Z,5.72
2023-04-04T18:21:48.355Z,4.30
2023-04-04T18:24:14.925Z,6.22
2023-04-04T18:26:41.577Z,6.20
2023-04-04T18:29:08.368Z,6.07
2023-04-04T18:31:35.094Z,6.05
2023-04-04T18:34:01.698Z,5.75
2023-04-04T18:36:28.292Z,6.38
2023-04-04T18:38:54.878Z,6.00
2023-04-04T18:41:21.934Z,6.07
2023-04-04T18:43:48.515Z,6.13
2023-04-04T18:46:15.809Z,5.93
2023-04-04T18:51:09.176Z,6.10
2023-04-04T18:53:35.743Z,6.22
2023-04-04T18:56:02.277Z,5.05
2023-04-04T18:58:28.802Z,5.90
2023-04-04T19:00:58.444Z,5.87
2023-04-04T19:03:26.003Z,6.05
2023-04-04T19:05:53.951Z,5.70
2023-04-04T19:08:20.557Z,5.80
2023-04-04T19:10:50.966Z,5.93
2023-04-04T19:13:18.589Z,5.72
2023-04-04T19:15:45.700Z,5.95
2023-04-04T19:18:12.400Z,6.45
2023-04-04T19:20:42.053Z,5.90
2023-04-04T19:23:08.804Z,6.22
2023-04-04T19:25:35.370Z,5.43
2023-04-04T19:28:02.576Z,6.17
2023-04-04T19:30:48.969Z,6.40
2023-04-04T19:33:17.978Z,6.00
2023-04-04T19:35:48.197Z,5.88
2023-04-04T19:38:23.844Z,6.10
2023-04-04T19:40:54.831Z,6.07
2023-04-04T19:43:22.631Z,6.10
2023-04-04T19:45:54.030Z,6.07
2023-04-04T19:48:46.022Z,6.13
2023-04-04T19:51:15.690Z,6.25
2023-04-04T19:53:46.436Z,5.40
2023-04-04T19:56:15.984Z,6.07
2023-04-04T19:58:43.436Z,5.95
2023-04-04T20:01:11.759Z,6.43
2023-04-04T20:03:39.709Z,5.88
2023-04-04T20:06:22.708Z,6.15
2023-04-04T20:08:52.039Z,6.18
2023-04-04T20:11:26.103Z,5.45
2023-04-04T20:13:52.650Z,6.10
2023-04-04T20:16:19.503Z,6.07
2023-04-04T20:18:46.562Z,5.35
2023-04-04T20:21:16.564Z,5.60
2023-04-04T20:23:50.062Z,5.63
2023-04-04T20:26:59.842Z,5.93
2023-04-04T20:29:35.561Z,5.90
2023-04-04T20:32:04.930Z,6.03
2023-04-04T20:34:47.859Z,6.10
2023-04-04T20:37:25.125Z,5.53
2023-04-04T20:40:36.835Z,6.57
2023-04-04T20:43:06.944Z,5.90
2023-04-04T20:45:42.909Z,6.63
2023-04-04T20:48:37.361Z,6.38
2023-04-04T20:51:23.694Z,5.95
2023-04-04T20:59:24.734Z,5.63
2023-04-04T21:01:51.351Z,5.50
2023-04-04T21:04:25.996Z,5.68
2023-04-04T21:06:53.260Z,5.63
2023-04-04T21:09:19.850Z,5.47
2023-04-04T21:11:46.662Z,5.80
2023-04-04T21:14:24.019Z,4.97
2023-04-04T21:16:51.381Z,5.38
2023-04-04T21:21:50.623Z,5.70
2023-04-04T21:24:17.345Z,5.70
2023-04-04T21:26:44.743Z,5.03
2023-04-04T21:31:48.415Z,5.20
2023-04-04T21:34:17.472Z,5.85
2023-04-04T21:36:45.651Z,5.78
2023-04-04T21:39:23.933Z,5.70
2023-04-04T21:41:53.324Z,6.10
2023-04-04T21:46:46.779Z,6.38
2023-04-04T21:49:13.351Z,5.82
2023-04-04T21:51:40.033Z,6.03
2023-04-04T21:54:07.021Z,6.20
2023-04-04T21:56:33.987Z,6.28
2023-04-04T21:59:04.138Z,6.43
2023-04-04T22:01:31.254Z,6.43
2023-04-04T22:03:58.683Z,6.05
2023-04-04T22:06:26.403Z,6.47
2023-04-04T22:08:54.887Z,6.47
2023-04-04T22:11:23.210Z,6.30
2023-04-04T22:13:50.655Z,6.13
2023-04-04T22:16:19.160Z,6.28
2023-04-04T22:18:52.169Z,6.22
2023-04-04T22:21:25.955Z,6.43
2023-04-04T22:24:01.983Z,6.60
2023-04-04T22:26:32.649Z,7.03
2023-04-04T22:29:00.928Z,7.20
2023-04-04T22:31:28.722Z,6.50
2023-04-04T22:33:55.922Z,6.68
2023-04-04T22:36:25.184Z,7.10
2023-04-04T22:38:56.723Z,6.50
2023-04-04T22:41:27.962Z,6.97
2023-04-04T22:43:55.020Z,6.75
2023-04-04T22:46:21.672Z,6.72
2023-04-04T22:48:48.316Z,6.75
2023-04-04T22:51:18.051Z,7.22
2023-04-04T22:53:45.781Z,6.38
2023-04-04T22:56:12.343Z,7.05
2023-04-04T22:58:38.890Z,7.00
2023-04-04T23:01:06.430Z,6.80
2023-04-04T23:03:33.559Z,6.78
2023-04-04T23:06:00.450Z,6.53
2023-04-04T23:08:27.101Z,6.63
2023-04-04T23:10:53.615Z,6.43
2023-04-04T23:13:20.193Z,6.47
2023-04-04T23:15:46.841Z,6.28
2023-04-04T23:18:13.576Z,6.60
2023-04-04T23:20:41.287Z,6.78
2023-04-04T23:23:07.956Z,6.82
2023-04-04T23:25:34.460Z,6.90
2023-04-04T23:28:01.179Z,6.65
2023-04-04T23:30:28.594Z,5.90
2023-04-04T23:32:55.558Z,6.88
2023-04-04T23:35:22.108Z,5.95
2023-04-04T23:37:49.026Z,6.65
2023-04-04T23:40:15.805Z,5.97
2023-04-04T23:42:42.451Z,6.45
2023-04-04T23:45:09.747Z,6.68
2023-04-04T23:50:04.025Z,5.63
2023-04-04T23:52:30.726Z,6.00
2023-04-04T23:54:57.237Z,4.40
2023-04-04T23:57:24.123Z,6.13
2023-04-04T23:59:50.833Z,5.57
